Time;durP1;ratioP1;P1;durP2;ratioP2;P2;SDS_P1;SDS_P2;PMS_P1;PMS_P2;Temp;Humidity;BMP_temperature;BMP_pressure;BME280_temperature;BME280_humidity;BME280_pressure;Samples;Min_cycle;Max_cycle;Signal;HPM_P1;HPM_P2
2024/02/10 00:03:35;;;;;;;7.90;3.88;;;10.50;99.90;;;;;;8457642;28;20440;-75
2024/02/10 00:07:37;;;;;;;7.30;3.85;;;10.50;99.90;;;;;;8454153;27;20043;-75
2024/02/10 00:11:39;;;;;;;7.47;3.42;;;10.50;99.90;;;;;;8454030;28;20082;-75
2024/02/10 00:15:41;;;;;;;7.30;3.53;;;10.50;99.90;;;;;;8445592;28;20146;-74
2024/02/10 00:19:48;;;;;;;9.25;3.50;;;10.50;99.90;;;;;;8455943;28;20089;-74
2024/02/10 00:23:51;;;;;;;7.53;3.05;;;10.60;99.90;;;;;;8453688;28;20047;-74
2024/02/10 00:27:53;;;;;;;9.25;3.70;;;10.60;99.90;;;;;;8450310;28;20428;-74
2024/02/10 00:31:57;;;;;;;7.75;3.60;;;10.60;99.90;;;;;;8454634;28;20047;-74
2024/02/10 00:35:59;;;;;;;7.35;3.30;;;10.60;99.90;;;;;;8456005;28;20062;-75
2024/02/10 00:40:03;;;;;;;4.95;2.90;;;10.60;99.90;;;;;;8454000;28;20051;-75
2024/02/10 00:44:05;;;;;;;6.82;3.30;;;10.60;99.90;;;;;;8452588;28;20040;-75
2024/02/10 00:48:07;;;;;;;8.57;3.80;;;10.60;99.90;;;;;;8452013;28;20043;-74
2024/02/10 00:52:09;;;;;;;5.30;2.85;;;10.60;99.90;;;;;;8447017;28;20491;-74
2024/02/10 00:56:12;;;;;;;9.63;3.83;;;10.60;99.90;;;;;;8450141;28;20525;-74
2024/02/10 01:00:17;;;;;;;7.28;3.10;;;10.60;99.90;;;;;;8445928;28;20055;-74
2024/02/10 01:04:19;;;;;;;6.72;3.13;;;10.50;99.90;;;;;;8451618;28;20551;-74
2024/02/10 01:08:22;;;;;;;7.60;3.00;;;10.50;99.90;;;;;;8455180;28;20444;-74
2024/02/10 01:12:24;;;;;;;5.78;3.13;;;10.50;99.90;;;;;;8454377;28;20051;-75
2024/02/10 01:16:25;;;;;;;6.32;2.72;;;10.50;99.90;;;;;;8452107;28;20040;-75
2024/02/10 01:20:28;;;;;;;6.15;3.25;;;10.60;99.90;;;;;;8448394;28;20051;-74
2024/02/10 01:24:30;;;;;;;7.25;3.35;;;10.50;99.90;;;;;;8453306;28;20050;-74
2024/02/10 01:28:35;;;;;;;8.05;3.33;;;10.50;99.90;;;;;;8446273;28;20054;-75
2024/02/10 01:32:36;;;;;;;7.25;3.38;;;10.50;99.90;;;;;;8455440;28;20089;-74
2024/02/10 01:36:38;;;;;;;7.72;3.47;;;10.50;99.90;;;;;;8453988;28;20052;-75
2024/02/10 01:40:42;;;;;;;7.18;3.60;;;10.50;99.90;;;;;;8456699;27;20073;-74
2024/02/10 01:44:45;;;;;;;10.88;3.78;;;10.50;99.90;;;;;;8458509;27;20423;-74
2024/02/10 01:48:48;;;;;;;6.25;3.08;;;10.50;99.90;;;;;;8460144;28;20054;-74
2024/02/10 01:52:50;;;;;;;6.05;3.08;;;10.50;99.90;;;;;;8461102;28;20051;-74
2024/02/10 01:56:53;;;;;;;6.90;3.22;;;10.50;99.90;;;;;;8453643;27;20131;-74
2024/02/10 02:00:56;;;;;;;7.50;3.63;;;10.50;99.90;;;;;;8481736;27;20130;-75
2024/02/10 02:05:00;;;;;;;6.90;3.30;;;10.40;99.90;;;;;;8460991;28;20046;-74
2024/02/10 02:09:03;;;;;;;7.93;3.47;;;10.50;99.90;;;;;;8447210;28;20040;-74
2024/02/10 02:13:05;;;;;;;13.02;3.20;;;10.50;99.90;;;;;;8456174;28;20052;-74
2024/02/10 02:17:09;;;;;;;6.50;3.13;;;10.50;99.90;;;;;;8448573;28;20084;-75
2024/02/10 02:21:12;;;;;;;6.38;3.08;;;10.50;99.90;;;;;;8461348;28;20043;-74
2024/02/10 02:25:14;;;;;;;8.60;3.05;;;10.50;99.90;;;;;;8458047;28;20047;-74
2024/02/10 02:29:16;;;;;;;9.82;3.50;;;10.50;99.90;;;;;;8447249;28;20507;-74
2024/02/10 02:33:18;;;;;;;5.03;2.65;;;10.50;99.90;;;;;;8454781;28;20055;-74
2024/02/10 02:37:22;;;;;;;6.15;2.90;;;10.50;99.90;;;;;;8457075;28;20513;-74
2024/02/10 02:41:26;;;;;;;6.35;3.20;;;10.50;99.90;;;;;;8457606;28;20039;-75
2024/02/10 02:45:30;;;;;;;6.13;2.80;;;10.60;99.90;;;;;;8458361;28;20043;-74
2024/02/10 02:49:31;;;;;;;4.55;2.38;;;10.60;99.90;;;;;;8456097;28;20044;-74
2024/02/10 02:53:33;;;;;;;6.30;3.10;;;10.60;99.90;;;;;;8442441;28;20131;-74
2024/02/10 02:57:35;;;;;;;6.53;3.20;;;10.60;99.90;;;;;;8449722;28;20179;-74
2024/02/10 03:01:37;;;;;;;5.68;2.75;;;10.60;99.90;;;;;;8455392;28;20043;-74
2024/02/10 03:05:40;;;;;;;6.75;2.92;;;10.60;99.90;;;;;;8451526;28;20566;-74
2024/02/10 03:09:45;;;;;;;7.80;3.67;;;10.60;99.90;;;;;;8456332;28;20055;-75
2024/02/10 03:13:47;;;;;;;7.47;2.97;;;10.60;99.90;;;;;;8455215;28;20052;-74
2024/02/10 03:17:49;;;;;;;6.20;3.00;;;10.60;99.90;;;;;;8446528;28;20036;-74
2024/02/10 03:21:52;;;;;;;7.97;3.33;;;10.60;99.90;;;;;;8451384;28;20101;-74
2024/02/10 03:25:56;;;;;;;5.70;3.25;;;10.60;99.90;;;;;;8451058;28;20043;-74
2024/02/10 03:30:00;;;;;;;5.65;3.10;;;10.60;99.90;;;;;;8456102;27;20040;-74
2024/02/10 03:34:02;;;;;;;6.88;3.20;;;10.60;99.90;;;;;;8458021;28;20056;-74
2024/02/10 03:38:04;;;;;;;9.02;2.90;;;10.50;99.90;;;;;;8439278;28;20054;-74
2024/02/10 03:42:06;;;;;;;7.38;3.00;;;10.50;99.90;;;;;;8450051;28;20044;-74
2024/02/10 03:46:08;;;;;;;7.13;3.40;;;10.40;99.90;;;;;;8453562;28;20044;-74
2024/02/10 03:50:14;;;;;;;6.75;3.03;;;10.40;99.90;;;;;;8449531;28;20043;-74
2024/02/10 03:54:16;;;;;;;5.72;2.95;;;10.40;99.90;;;;;;8458021;28;20055;-74
2024/02/10 03:58:18;;;;;;;5.70;2.97;;;10.30;99.90;;;;;;8449607;28;20071;-74
2024/02/10 04:02:20;;;;;;;6.70;3.50;;;10.30;99.90;;;;;;8456988;28;20047;-74
2024/02/10 04:06:23;;;;;;;7.25;2.95;;;10.30;99.90;;;;;;8454892;28;20055;-74
2024/02/10 04:10:28;;;;;;;7.43;3.55;;;10.30;99.90;;;;;;8450520;28;20076;-74
2024/02/10 04:14:29;;;;;;;7.75;3.33;;;10.30;99.90;;;;;;8442586;28;20048;-74
2024/02/10 04:18:31;;;;;;;7.47;3.33;;;10.30;99.90;;;;;;8439922;28;20048;-74
2024/02/10 04:22:37;;;;;;;6.13;3.20;;;10.40;99.90;;;;;;8449115;28;20483;-74
2024/02/10 04:26:40;;;;;;;5.18;2.88;;;10.40;99.90;;;;;;8478948;27;20036;-74
2024/02/10 04:30:42;;;;;;;6.10;3.38;;;10.40;99.90;;;;;;8449017;28;20038;-74
2024/02/10 04:34:45;;;;;;;7.68;3.17;;;10.40;99.90;;;;;;8455912;28;20432;-74
2024/02/10 04:38:47;;;;;;;7.78;3.15;;;10.40;99.90;;;;;;8454517;28;20051;-74
2024/02/10 04:42:53;;;;;;;6.78;3.25;;;10.40;99.90;;;;;;8445064;28;20040;-74
2024/02/10 04:46:55;;;;;;;6.18;2.83;;;10.40;99.90;;;;;;8459026;28;20066;-74
2024/02/10 04:50:59;;;;;;;6.85;3.22;;;10.40;99.90;;;;;;8450959;28;20038;-74
2024/02/10 04:55:01;;;;;;;6.65;3.10;;;10.40;99.90;;;;;;8475276;27;20117;-74
2024/02/10 04:59:03;;;;;;;4.97;2.78;;;10.40;99.90;;;;;;8453402;28;20044;-74
2024/02/10 05:03:04;;;;;;;5.43;2.60;;;10.40;99.90;;;;;;8453629;28;20559;-74
2024/02/10 05:07:08;;;;;;;5.13;2.50;;;10.40;99.90;;;;;;8450723;28;20071;-74
2024/02/10 05:11:10;;;;;;;5.72;3.05;;;10.40;99.90;;;;;;8454654;28;20044;-74
2024/02/10 05:15:14;;;;;;;5.15;2.53;;;10.40;99.90;;;;;;8452333;28;20097;-74
2024/02/10 05:19:16;;;;;;;6.13;3.33;;;10.40;99.90;;;;;;8457806;28;20047;-74
2024/02/10 05:23:28;;;;;;;6.25;2.85;;;10.40;99.90;;;;;;8461050;27;20050;-73
2024/02/10 05:27:30;;;;;;;7.95;3.28;;;10.40;99.90;;;;;;8457364;28;20039;-74
2024/02/10 05:31:36;;;;;;;6.82;3.45;;;10.40;99.90;;;;;;8449952;28;20051;-74
2024/02/10 05:35:38;;;;;;;6.20;3.80;;;10.40;99.90;;;;;;8447432;28;20060;-74
2024/02/10 05:39:40;;;;;;;5.28;2.50;;;10.40;99.90;;;;;;8443462;28;20051;-74
2024/02/10 05:43:43;;;;;;;5.85;3.00;;;10.40;99.90;;;;;;8430311;27;20040;-74
2024/02/10 05:47:53;;;;;;;6.28;2.95;;;10.40;99.90;;;;;;8443670;28;20510;-74
2024/02/10 05:51:55;;;;;;;6.78;2.78;;;10.40;99.90;;;;;;8437413;28;20040;-74
2024/02/10 05:55:57;;;;;;;6.70;2.95;;;10.30;99.90;;;;;;8437249;28;20093;-74
2024/02/10 05:59:59;;;;;;;8.90;4.45;;;10.30;99.90;;;;;;8454762;28;20044;-73
2024/02/10 06:04:01;;;;;;;11.82;6.35;;;10.30;99.90;;;;;;8454234;28;20048;-74
2024/02/10 06:08:10;;;;;;;33.40;21.30;;;10.30;99.90;;;;;;8453508;28;20048;-74
2024/02/10 06:12:14;;;;;;;35.25;24.10;;;10.30;99.90;;;;;;8449327;28;20047;-74
2024/02/10 06:16:16;;;;;;;36.40;24.30;;;10.30;99.90;;;;;;8451590;28;20055;-74
2024/02/10 06:20:22;;;;;;;21.15;14.73;;;10.30;99.90;;;;;;8445193;28;20062;-74
2024/02/10 06:24:27;;;;;;;20.30;14.75;;;10.30;99.90;;;;;;8453871;28;20049;-74
2024/02/10 06:28:29;;;;;;;30.02;20.10;;;10.30;99.90;;;;;;8453875;27;20104;-74
2024/02/10 06:32:36;;;;;;;32.53;22.08;;;10.30;99.90;;;;;;8451531;28;20449;-74
2024/02/10 06:36:38;;;;;;;41.20;30.38;;;10.30;99.90;;;;;;8453740;28;20662;-74
2024/02/10 06:40:40;;;;;;;31.80;23.73;;;10.30;99.90;;;;;;8443410;28;20430;-74
2024/02/10 06:44:42;;;;;;;22.02;16.70;;;10.30;99.90;;;;;;8465801;27;20487;-74
2024/02/10 06:48:46;;;;;;;15.63;12.00;;;10.30;99.90;;;;;;8451917;28;20406;-73
2024/02/10 06:52:48;;;;;;;14.85;10.07;;;10.20;99.90;;;;;;8447666;27;20044;-74
2024/02/10 06:56:50;;;;;;;9.88;6.32;;;10.20;99.90;;;;;;8449144;27;20074;-74
2024/02/10 07:00:52;;;;;;;9.07;5.78;;;10.20;99.90;;;;;;8451316;27;20395;-74
2024/02/10 07:04:55;;;;;;;7.53;4.28;;;10.20;99.90;;;;;;8454218;28;20044;-73
2024/02/10 07:09:01;;;;;;;6.93;4.20;;;10.10;99.90;;;;;;8452289;27;21047;-74
2024/02/10 07:13:04;;;;;;;6.72;3.78;;;10.10;99.90;;;;;;8448081;27;20044;-74
2024/02/10 07:17:06;;;;;;;7.38;3.53;;;10.00;99.90;;;;;;8434488;27;20055;-74
2024/02/10 07:21:08;;;;;;;6.78;3.00;;;10.00;99.90;;;;;;8431961;28;20062;-74
2024/02/10 07:25:11;;;;;;;6.20;3.35;;;10.00;99.90;;;;;;8426304;28;20083;-74
2024/02/10 07:29:13;;;;;;;7.32;3.65;;;10.00;99.90;;;;;;8424016;28;20047;-74
2024/02/10 07:33:16;;;;;;;7.18;3.42;;;10.00;99.90;;;;;;8426388;28;20105;-74
2024/02/10 07:37:19;;;;;;;6.95;3.50;;;10.00;99.90;;;;;;8431542;28;20062;-74
2024/02/10 07:41:20;;;;;;;7.20;3.47;;;10.00;99.90;;;;;;8450369;28;20047;-74
2024/02/10 07:45:23;;;;;;;7.90;3.60;;;10.00;99.90;;;;;;8428368;28;20043;-74
2024/02/10 07:49:26;;;;;;;7.50;3.20;;;10.10;99.90;;;;;;8434175;27;20081;-74
2024/02/10 07:53:28;;;;;;;6.22;3.65;;;10.10;99.90;;;;;;8446955;27;20073;-74
2024/02/10 07:57:34;;;;;;;6.30;3.53;;;10.10;99.90;;;;;;8448316;27;20121;-73
2024/02/10 08:01:36;;;;;;;7.65;3.50;;;10.10;99.90;;;;;;8452226;27;20170;-74
2024/02/10 08:05:40;;;;;;;6.40;3.38;;;10.10;99.90;;;;;;8449567;27;20134;-74
2024/02/10 08:09:42;;;;;;;8.27;3.38;;;10.20;99.90;;;;;;8447939;28;20043;-74
2024/02/10 08:13:44;;;;;;;7.10;3.80;;;10.20;99.90;;;;;;8447131;28;20044;-73
2024/02/10 08:17:46;;;;;;;7.07;4.30;;;10.20;99.90;;;;;;8440782;28;20051;-73
2024/02/10 08:21:48;;;;;;;6.43;4.05;;;10.30;99.90;;;;;;8433908;27;20036;-73
2024/02/10 08:25:50;;;;;;;9.38;4.60;;;10.30;99.90;;;;;;8438346;28;20046;-73
2024/02/10 08:29:53;;;;;;;9.05;4.10;;;10.40;99.90;;;;;;8433783;28;20048;-73
2024/02/10 08:33:58;;;;;;;8.88;4.25;;;10.40;99.90;;;;;;8432552;28;20413;-73
2024/02/10 08:37:59;;;;;;;8.95;4.90;;;10.50;99.90;;;;;;8438942;28;20052;-73
2024/02/10 08:42:05;;;;;;;8.05;4.07;;;10.50;99.90;;;;;;8445987;28;20040;-74
2024/02/10 08:46:07;;;;;;;8.20;4.78;;;10.50;99.90;;;;;;8440958;28;20052;-73
2024/02/10 08:50:11;;;;;;;9.77;4.75;;;10.60;99.90;;;;;;8434188;28;20458;-74
2024/02/10 08:54:14;;;;;;;7.75;4.70;;;10.60;99.90;;;;;;8438571;28;20055;-73
2024/02/10 08:58:17;;;;;;;9.75;4.57;;;10.60;99.90;;;;;;8446749;28;20047;-73
2024/02/10 09:02:22;;;;;;;8.07;4.72;;;10.60;99.90;;;;;;8444563;28;20051;-73
2024/02/10 09:06:24;;;;;;;8.00;4.55;;;10.60;99.90;;;;;;8443528;28;20048;-73
2024/02/10 09:10:45;;;;;;;9.75;5.13;;;10.70;99.90;;;;;;8450375;28;20551;-73
2024/02/10 09:14:47;;;;;;;8.45;4.82;;;10.70;99.90;;;;;;8448164;28;20105;-73
2024/02/10 09:18:49;;;;;;;8.48;4.88;;;10.70;99.90;;;;;;8453817;28;20039;-73
2024/02/10 09:22:53;;;;;;;7.90;4.45;;;10.80;99.90;;;;;;8441277;28;20082;-74
2024/02/10 09:26:55;;;;;;;7.28;4.63;;;10.90;99.90;;;;;;8424503;28;20039;-74
2024/02/10 09:30:57;;;;;;;9.45;4.30;;;10.90;99.90;;;;;;8422636;28;20780;-73
2024/02/10 09:35:03;;;;;;;6.32;3.60;;;11.00;99.90;;;;;;8429828;28;20044;-73
2024/02/10 09:39:05;;;;;;;8.13;4.03;;;11.10;99.90;;;;;;8428077;28;20064;-73
2024/02/10 09:43:13;;;;;;;6.85;4.63;;;11.10;99.90;;;;;;8428690;28;20094;-74
2024/02/10 09:47:16;;;;;;;8.73;4.35;;;11.10;99.90;;;;;;8423106;28;20402;-73
2024/02/10 09:51:19;;;;;;;9.07;5.35;;;11.20;99.90;;;;;;8431431;28;20061;-73
2024/02/10 09:55:28;;;;;;;9.93;6.13;;;11.20;99.90;;;;;;8420339;28;20449;-74
2024/02/10 09:59:30;;;;;;;10.55;5.30;;;11.20;99.90;;;;;;8425454;28;20044;-73
2024/02/10 10:03:33;;;;;;;10.40;5.68;;;11.20;99.90;;;;;;8428409;28;20104;-73
2024/02/10 10:07:35;;;;;;;8.05;5.25;;;11.20;99.90;;;;;;8425643;28;20380;-73
2024/02/10 10:11:46;;;;;;;10.73;6.55;;;11.20;99.90;;;;;;8427037;28;20051;-73
2024/02/10 10:15:48;;;;;;;9.02;5.68;;;11.20;99.90;;;;;;8425835;28;20672;-73
2024/02/10 10:20:24;;;;;;;9.07;5.63;;;11.20;99.90;;;;;;8423204;27;20047;-73
2024/02/10 10:24:27;;;;;;;9.85;6.22;;;11.30;99.90;;;;;;8425172;28;20043;-73
2024/02/10 10:28:33;;;;;;;8.85;5.05;;;11.40;99.90;;;;;;8426804;28;20135;-73
2024/02/10 10:32:36;;;;;;;9.85;5.80;;;11.50;99.90;;;;;;8434682;28;20127;-74
2024/02/10 10:36:39;;;;;;;8.00;4.93;;;11.70;99.90;;;;;;8431550;28;20090;-73
2024/02/10 10:40:42;;;;;;;9.75;4.68;;;11.80;99.90;;;;;;8432538;28;20055;-73
2024/02/10 10:44:50;;;;;;;8.45;4.82;;;11.80;99.90;;;;;;8427417;28;20112;-74
2024/02/10 10:48:52;;;;;;;7.20;4.43;;;11.80;99.90;;;;;;8425014;28;20035;-74
2024/02/10 10:53:37;;;;;;;8.85;5.30;;;11.90;99.90;;;;;;8430720;28;20087;-73
2024/02/10 10:57:40;;;;;;;7.32;4.63;;;12.00;99.90;;;;;;8431115;27;20048;-73
2024/02/10 11:01:42;;;;;;;7.35;4.50;;;12.00;99.90;;;;;;8435107;28;20721;-73
2024/02/10 11:05:51;;;;;;;8.02;4.65;;;12.00;99.90;;;;;;8428681;28;20052;-73
2024/02/10 11:09:54;;;;;;;9.13;4.68;;;12.10;99.90;;;;;;8428046;28;20123;-73
2024/02/10 11:14:09;;;;;;;8.85;4.78;;;12.20;99.90;;;;;;8423546;28;20048;-73
2024/02/10 11:18:18;;;;;;;9.20;4.82;;;12.30;99.90;;;;;;8428725;28;20506;-74
2024/02/10 11:22:26;;;;;;;8.10;4.38;;;12.40;99.90;;;;;;8430030;27;20082;-74
2024/02/10 11:26:29;;;;;;;8.32;5.03;;;12.60;99.90;;;;;;8434263;28;20089;-73
2024/02/10 11:31:09;;;;;;;6.82;4.47;;;12.70;99.90;;;;;;8426202;28;20530;-73
2024/02/10 11:35:12;;;;;;;7.68;4.38;;;12.80;99.90;;;;;;8451230;27;20055;-73
2024/02/10 11:39:15;;;;;;;10.60;5.35;;;12.90;99.90;;;;;;8425217;28;20109;-73
2024/02/10 11:43:17;;;;;;;7.45;4.65;;;12.90;99.90;;;;;;8436181;28;20044;-74
2024/02/10 11:47:19;;;;;;;8.38;4.35;;;13.10;99.90;;;;;;8424293;28;20051;-73
2024/02/10 11:51:23;;;;;;;7.32;4.50;;;13.20;99.90;;;;;;8427619;28;20048;-74
2024/02/10 11:55:25;;;;;;;8.15;4.78;;;13.30;99.90;;;;;;8430573;27;20090;-73
2024/02/10 11:59:28;;;;;;;9.20;5.05;;;13.50;99.90;;;;;;8426634;28;20047;-73
2024/02/10 12:03:31;;;;;;;8.77;4.55;;;13.80;99.90;;;;;;8408841;27;20560;-73
2024/02/10 12:07:36;;;;;;;7.90;4.35;;;14.10;99.90;;;;;;8430006;27;20097;-74
2024/02/10 12:11:38;;;;;;;9.63;4.95;;;14.20;99.90;;;;;;8435186;28;20044;-73
2024/02/10 12:15:40;;;;;;;7.20;4.50;;;14.40;99.90;;;;;;8428519;28;20043;-73
2024/02/10 12:19:43;;;;;;;7.20;4.72;;;14.40;99.90;;;;;;8426786;28;20048;-73
2024/02/10 12:23:47;;;;;;;7.07;4.30;;;14.50;99.90;;;;;;8427762;28;20047;-74
2024/02/10 12:27:49;;;;;;;6.82;4.05;;;14.50;99.90;;;;;;8425808;28;20039;-73
2024/02/10 12:31:51;;;;;;;8.25;4.30;;;14.50;99.90;;;;;;8437013;28;20035;-74
2024/02/10 12:35:55;;;;;;;7.07;4.80;;;14.40;99.90;;;;;;8425193;28;20051;-74
2024/02/10 12:39:58;;;;;;;7.25;4.90;;;14.30;99.90;;;;;;8424169;28;20076;-74
2024/02/10 12:44:00;;;;;;;6.60;4.18;;;14.20;99.90;;;;;;8420974;28;20096;-74
2024/02/10 12:48:05;;;;;;;8.43;5.43;;;14.20;99.90;;;;;;8424056;28;20051;-73
2024/02/10 12:52:07;;;;;;;9.27;5.30;;;14.00;99.90;;;;;;8418940;28;21120;-73
2024/02/10 12:56:10;;;;;;;8.25;5.07;;;13.90;99.90;;;;;;8419479;28;20542;-73
2024/02/10 13:00:19;;;;;;;8.73;5.18;;;13.80;99.90;;;;;;8425104;28;20051;-73
2024/02/10 13:04:21;;;;;;;9.07;5.43;;;13.80;99.90;;;;;;8421232;28;20131;-73
2024/02/10 13:08:23;;;;;;;8.52;5.38;;;13.80;99.90;;;;;;8433941;28;20051;-73
2024/02/10 13:12:25;;;;;;;7.22;4.35;;;13.80;99.90;;;;;;8421868;28;20044;-73
2024/02/10 13:16:26;;;;;;;8.13;5.00;;;13.80;99.90;;;;;;8429105;28;20051;-73
2024/02/10 13:20:28;;;;;;;9.35;5.80;;;13.80;99.90;;;;;;8458322;27;20044;-73
2024/02/10 13:24:31;;;;;;;10.68;6.25;;;13.80;99.90;;;;;;8428773;28;20044;-73
2024/02/10 13:28:33;;;;;;;11.52;7.00;;;13.80;99.90;;;;;;8423401;28;20062;-74
2024/02/10 13:32:36;;;;;;;10.35;6.72;;;13.80;99.90;;;;;;8431131;27;20547;-73
2024/02/10 14:06:22;;;;;;;7.47;4.97;;;13.80;99.90;;;;;;8434201;27;20105;-74
2024/02/10 14:10:30;;;;;;;8.27;4.63;;;13.80;99.90;;;;;;8428236;27;20054;-73
2024/02/10 14:14:34;;;;;;;7.97;4.57;;;13.80;99.90;;;;;;8427614;27;20419;-74
2024/02/10 14:18:36;;;;;;;7.35;4.38;;;13.80;99.90;;;;;;8425288;27;20164;-73
2024/02/10 14:22:38;;;;;;;7.22;4.90;;;13.80;99.90;;;;;;8431464;27;20083;-73
2024/02/10 14:26:41;;;;;;;8.40;4.60;;;13.70;99.90;;;;;;8442154;27;20120;-74
2024/02/10 14:30:47;;;;;;;7.43;4.57;;;13.80;99.90;;;;;;8445242;27;20055;-74
2024/02/10 14:39:13;;;;;;;8.57;4.50;;;13.60;99.90;;;;;;8415571;27;20081;-73
2024/02/10 14:43:16;;;;;;;7.53;4.45;;;13.60;99.90;;;;;;8421042;28;20137;-73
2024/02/10 14:47:19;;;;;;;7.20;4.10;;;13.60;99.90;;;;;;8425613;28;20414;-73
2024/02/10 14:51:21;;;;;;;7.10;4.15;;;13.60;99.90;;;;;;8430393;28;20602;-73
2024/02/10 14:55:25;;;;;;;6.78;3.70;;;13.60;99.90;;;;;;8430713;28;20051;-73
2024/02/10 14:59:29;;;;;;;7.18;3.97;;;13.50;99.90;;;;;;8429418;28;20491;-73
2024/02/10 15:03:36;;;;;;;5.82;3.50;;;13.50;99.90;;;;;;8429318;28;20809;-73
2024/02/10 15:13:53;;;;;;;6.25;3.35;;;13.40;99.90;;;;;;8437569;28;20154;-73
2024/02/10 15:17:55;;;;;;;6.95;3.75;;;13.40;99.90;;;;;;8431620;27;20097;-73
2024/02/10 15:21:58;;;;;;;6.85;3.65;;;13.40;99.90;;;;;;8433344;28;20090;-74
2024/02/10 15:26:00;;;;;;;5.75;3.28;;;13.30;99.90;;;;;;8431839;28;20402;-74
2024/02/10 15:30:04;;;;;;;7.80;3.63;;;13.30;99.90;;;;;;8431354;28;20475;-73
2024/02/10 15:34:06;;;;;;;5.68;2.90;;;13.30;99.90;;;;;;8437941;28;20040;-74
2024/02/10 15:38:12;;;;;;;5.90;3.20;;;13.30;99.90;;;;;;8433406;28;20091;-73
2024/02/10 15:42:14;;;;;;;7.57;2.83;;;13.20;99.90;;;;;;8432377;28;20048;-74
2024/02/10 15:46:18;;;;;;;5.97;3.10;;;13.20;99.90;;;;;;8438206;28;20711;-73
2024/02/10 15:50:20;;;;;;;4.93;2.72;;;13.20;99.90;;;;;;8421694;28;20055;-73
2024/02/10 15:54:22;;;;;;;6.88;2.97;;;13.10;99.90;;;;;;8456792;27;20086;-73
2024/02/10 15:58:25;;;;;;;5.07;2.95;;;13.00;99.90;;;;;;8439974;27;20092;-73
2024/02/10 16:02:27;;;;;;;6.50;3.20;;;13.00;99.90;;;;;;8432748;28;20109;-74
2024/02/10 16:06:28;;;;;;;6.90;3.20;;;13.00;99.90;;;;;;8430802;28;20057;-74
2024/02/10 16:10:30;;;;;;;6.13;2.90;;;12.90;99.90;;;;;;8430154;27;20394;-74
2024/02/10 16:14:33;;;;;;;5.35;2.85;;;12.90;99.90;;;;;;8434500;28;20486;-74
2024/02/10 16:18:36;;;;;;;5.78;3.17;;;12.80;99.90;;;;;;8423020;28;20055;-73
2024/02/10 16:22:38;;;;;;;6.35;3.25;;;12.70;99.90;;;;;;8420568;28;20472;-73
2024/02/10 16:26:40;;;;;;;6.75;2.97;;;12.70;99.90;;;;;;8433292;28;20048;-74
2024/02/10 16:30:43;;;;;;;6.00;2.97;;;12.70;99.90;;;;;;8422338;28;20093;-74
2024/02/10 16:34:46;;;;;;;5.68;3.10;;;12.60;99.90;;;;;;8422183;28;20127;-74
2024/02/10 16:38:48;;;;;;;7.45;3.22;;;12.50;99.90;;;;;;8425959;28;20055;-73
2024/02/10 16:42:54;;;;;;;7.57;3.40;;;12.50;99.90;;;;;;8431925;28;20495;-74
2024/02/10 16:46:59;;;;;;;6.55;2.90;;;12.50;99.90;;;;;;8425997;28;20127;-74
2024/02/10 16:51:03;;;;;;;6.13;3.10;;;12.40;99.90;;;;;;8428614;28;20044;-74
2024/02/10 16:55:09;;;;;;;5.82;2.90;;;12.30;99.90;;;;;;8430569;28;20083;-73
2024/02/10 16:59:11;;;;;;;6.68;2.85;;;12.30;99.90;;;;;;8427418;28;20056;-74
2024/02/10 17:03:15;;;;;;;5.22;2.92;;;12.20;99.90;;;;;;8423488;28;20055;-73
2024/02/10 17:07:21;;;;;;;8.75;2.92;;;12.10;99.90;;;;;;8430706;28;20080;-74
2024/02/10 17:11:23;;;;;;;5.15;2.63;;;12.10;99.90;;;;;;8438748;28;20566;-74
2024/02/10 17:15:25;;;;;;;6.38;3.50;;;12.00;99.90;;;;;;8431683;28;20079;-74
2024/02/10 17:19:27;;;;;;;6.28;3.10;;;12.00;99.90;;;;;;8432706;28;20395;-74
2024/02/10 17:23:29;;;;;;;6.30;3.13;;;11.90;99.90;;;;;;8438819;28;20075;-74
2024/02/10 17:27:32;;;;;;;7.32;3.65;;;11.90;99.90;;;;;;8438229;28;20491;-74
2024/02/10 17:31:37;;;;;;;6.43;3.50;;;11.90;99.90;;;;;;8444159;28;20077;-74
2024/02/10 17:35:39;;;;;;;6.07;3.47;;;11.90;99.90;;;;;;8445363;28;20063;-74
2024/02/10 17:39:41;;;;;;;6.43;3.92;;;11.90;99.90;;;;;;8438838;27;20060;-74
2024/02/10 17:43:43;;;;;;;7.45;3.70;;;11.90;99.90;;;;;;8432333;28;20048;-74
2024/02/10 17:47:45;;;;;;;8.10;4.10;;;11.90;99.90;;;;;;8431083;28;20052;-74
2024/02/10 17:51:49;;;;;;;6.97;3.70;;;11.90;99.90;;;;;;8433145;28;20440;-74
2024/02/10 17:55:53;;;;;;;7.70;3.88;;;11.90;99.90;;;;;;8431719;28;20044;-74
2024/02/10 17:59:58;;;;;;;9.88;4.32;;;11.90;99.90;;;;;;8429705;28;20063;-74
2024/02/10 18:04:00;;;;;;;7.30;3.97;;;11.90;99.90;;;;;;8439648;28;20044;-74
2024/02/10 18:08:04;;;;;;;7.93;4.72;;;11.80;99.90;;;;;;8436927;27;20052;-74
2024/02/10 18:12:08;;;;;;;9.98;4.40;;;11.90;99.90;;;;;;8439393;28;20071;-74
2024/02/10 18:16:11;;;;;;;7.93;4.50;;;11.80;99.90;;;;;;8435843;28;20086;-74
2024/02/10 18:20:17;;;;;;;8.38;4.55;;;11.90;99.90;;;;;;8437768;28;20100;-74
2024/02/10 18:24:20;;;;;;;9.25;4.60;;;11.80;99.90;;;;;;8457692;27;20040;-74
2024/02/10 18:28:22;;;;;;;7.53;4.78;;;11.80;99.90;;;;;;8437845;27;20128;-74
2024/02/10 18:32:24;;;;;;;7.97;5.22;;;11.80;99.90;;;;;;8426665;28;20045;-74
2024/02/10 18:36:28;;;;;;;7.85;4.50;;;11.70;99.90;;;;;;8428255;28;20051;-74
2024/02/10 18:40:31;;;;;;;7.63;4.85;;;11.70;99.90;;;;;;8429276;27;20051;-74
2024/02/10 18:44:33;;;;;;;8.32;5.32;;;11.70;99.90;;;;;;8427092;28;20048;-75
2024/02/10 18:48:34;;;;;;;9.45;4.97;;;11.80;99.90;;;;;;8430690;28;20083;-74
2024/02/10 18:52:39;;;;;;;9.75;5.18;;;11.70;99.90;;;;;;8441770;28;20048;-74
2024/02/10 18:56:44;;;;;;;7.90;4.65;;;11.70;99.90;;;;;;8432725;27;20087;-74
2024/02/10 19:00:49;;;;;;;8.93;5.03;;;11.80;99.90;;;;;;8426824;28;20117;-75
2024/02/10 19:04:51;;;;;;;9.38;5.10;;;11.80;99.90;;;;;;8431027;28;20047;-74
2024/02/10 19:08:53;;;;;;;8.73;4.93;;;11.80;99.90;;;;;;8437679;27;20048;-74
2024/02/10 19:12:55;;;;;;;8.13;4.60;;;11.80;99.90;;;;;;8432426;28;20104;-74
2024/02/10 19:16:59;;;;;;;7.30;4.40;;;11.80;99.90;;;;;;8425840;27;20051;-74
2024/02/10 19:21:01;;;;;;;8.35;5.03;;;11.80;99.90;;;;;;8430029;27;20051;-74
2024/02/10 19:25:06;;;;;;;8.70;5.00;;;11.70;99.90;;;;;;8432339;27;20453;-74
2024/02/10 19:29:11;;;;;;;10.40;4.95;;;11.70;99.90;;;;;;8427192;28;20042;-74
2024/02/10 19:33:14;;;;;;;10.05;5.10;;;11.70;99.90;;;;;;8430704;28;20148;-74
2024/02/10 19:42:39;;;;;;;8.15;4.63;;;11.70;99.90;;;;;;8428719;28;20018;-74
2024/02/10 19:46:44;;;;;;;9.82;5.25;;;11.60;99.90;;;;;;8427773;28;20039;-74
2024/02/10 19:50:46;;;;;;;9.80;4.20;;;11.60;99.90;;;;;;8436672;28;20086;-74
2024/02/10 19:54:50;;;;;;;8.57;4.88;;;11.50;99.90;;;;;;8433223;28;20127;-74
2024/02/10 19:58:52;;;;;;;8.45;5.07;;;11.50;99.90;;;;;;8458181;27;20125;-74
2024/02/10 20:02:56;;;;;;;8.98;5.28;;;11.60;99.90;;;;;;8433933;27;20056;-74
2024/02/10 20:07:00;;;;;;;7.68;4.93;;;11.60;99.90;;;;;;8431195;28;20108;-74
2024/02/10 20:11:04;;;;;;;9.27;5.00;;;11.60;99.90;;;;;;8432349;28;20090;-74
2024/02/10 20:15:10;;;;;;;8.43;5.28;;;11.60;99.90;;;;;;8429293;28;20074;-74
2024/02/10 20:19:13;;;;;;;9.80;4.93;;;11.60;99.90;;;;;;8433604;28;20134;-74
2024/02/10 20:23:16;;;;;;;8.63;5.22;;;11.60;99.90;;;;;;8430568;28;20058;-74
2024/02/10 20:27:19;;;;;;;9.50;4.97;;;11.60;99.90;;;;;;8429881;28;20053;-74
2024/02/10 20:31:21;;;;;;;8.85;5.32;;;11.60;99.90;;;;;;8433407;28;20092;-74
2024/02/10 20:35:23;;;;;;;8.65;5.22;;;11.60;99.90;;;;;;8430868;28;20098;-74
2024/02/10 20:39:27;;;;;;;8.40;5.40;;;11.60;99.90;;;;;;8431571;28;20108;-74
2024/02/10 20:43:29;;;;;;;9.38;5.05;;;11.60;99.90;;;;;;8430050;28;20081;-74
2024/02/10 20:47:33;;;;;;;9.30;5.10;;;11.50;99.90;;;;;;8430312;28;20048;-74
2024/02/10 20:51:35;;;;;;;8.00;5.05;;;11.50;99.90;;;;;;8433051;28;20093;-74
2024/02/10 20:55:37;;;;;;;8.50;5.30;;;11.50;99.90;;;;;;8433176;28;20584;-74
2024/02/10 20:59:39;;;;;;;9.23;5.82;;;11.50;99.90;;;;;;8430649;28;20054;-74
2024/02/10 21:03:42;;;;;;;9.43;5.80;;;11.50;99.90;;;;;;8429385;28;20443;-74
2024/02/10 21:07:44;;;;;;;11.25;5.82;;;11.50;99.90;;;;;;8428913;28;20465;-74
2024/02/10 21:11:46;;;;;;;8.88;5.53;;;11.50;99.90;;;;;;8425850;28;20127;-74
2024/02/10 21:15:48;;;;;;;9.65;6.13;;;11.50;99.90;;;;;;8428086;28;20048;-74
2024/02/10 21:19:50;;;;;;;8.75;5.57;;;11.50;99.90;;;;;;8426752;28;20138;-74
2024/02/10 21:23:52;;;;;;;9.35;5.45;;;11.50;99.90;;;;;;8431221;28;20520;-74
2024/02/10 21:27:54;;;;;;;9.55;6.30;;;11.40;99.90;;;;;;8433138;28;20047;-74
2024/02/10 21:31:56;;;;;;;8.43;5.78;;;11.40;99.90;;;;;;8430288;28;20039;-74
2024/02/10 21:35:59;;;;;;;8.57;5.45;;;11.40;99.90;;;;;;8430916;28;20048;-74
2024/02/10 21:40:03;;;;;;;9.00;5.72;;;11.40;99.90;;;;;;8432537;28;20124;-74
2024/02/10 21:44:05;;;;;;;10.07;6.53;;;11.40;99.90;;;;;;8430681;28;20054;-74
2024/02/10 21:48:08;;;;;;;9.70;6.00;;;11.40;99.90;;;;;;8430564;28;20043;-74
2024/02/10 21:52:10;;;;;;;9.68;6.50;;;11.40;99.90;;;;;;8433456;28;20040;-74